createdAt,value
2023-02-16T00:01:16.677Z,6.20
2023-02-16T00:03:44.226Z,5.80
2023-02-16T00:06:15.800Z,5.90
2023-02-16T00:08:48.807Z,5.80
2023-02-16T00:11:52.389Z,6.00
2023-02-16T00:14:23.310Z,5.90
2023-02-16T00:16:50.552Z,5.90
2023-02-16T00:19:18.969Z,6.00
2023-02-16T00:21:47.637Z,5.90
2023-02-16T00:24:15.620Z,5.80
2023-02-16T00:26:43.478Z,5.90
2023-02-16T00:29:32.835Z,5.90
2023-02-16T00:32:03.109Z,5.90
2023-02-16T00:34:42.021Z,6.00
2023-02-16T00:37:13.135Z,6.00
2023-02-16T00:39:41.942Z,5.90
2023-02-16T00:42:24.000Z,5.90
2023-02-16T00:44:54.451Z,6.00
2023-02-16T00:47:30.048Z,5.90
2023-02-16T00:49:57.549Z,6.00
2023-02-16T00:52:43.444Z,6.00
2023-02-16T00:55:22.727Z,6.00
2023-02-16T00:58:02.450Z,6.00
2023-02-16T01:00:46.682Z,6.00
2023-02-16T01:03:19.503Z,5.90
2023-02-16T01:05:47.728Z,6.00
2023-02-16T01:08:36.137Z,6.00
2023-02-16T01:11:09.853Z,5.80
2023-02-16T01:13:46.998Z,6.00
2023-02-16T01:16:23.876Z,5.90
2023-02-16T01:18:52.461Z,6.00
2023-02-16T01:21:21.881Z,5.90
2023-02-16T01:23:49.241Z,5.90
2023-02-16T01:26:19.408Z,6.00
2023-02-16T01:28:47.717Z,6.00
2023-02-16T01:31:16.683Z,6.00
2023-02-16T01:33:44.173Z,6.10
2023-02-16T01:36:27.928Z,6.10
2023-02-16T01:38:54.980Z,6.00
2023-02-16T01:41:52.728Z,6.10
2023-02-16T01:44:49.687Z,6.10
2023-02-16T01:47:42.498Z,6.00
2023-02-16T01:50:22.422Z,6.10
2023-02-16T01:53:01.856Z,6.10
2023-02-16T01:55:37.500Z,6.20
2023-02-16T01:58:24.567Z,6.20
2023-02-16T02:00:54.709Z,6.20
2023-02-16T02:03:52.182Z,6.30
2023-02-16T02:06:32.629Z,6.20
2023-02-16T02:09:08.214Z,6.20
2023-02-16T02:11:46.281Z,6.30
2023-02-16T02:14:23.399Z,6.40
2023-02-16T02:17:01.498Z,6.40
2023-02-16T02:19:45.053Z,6.40
2023-02-16T02:22:58.428Z,6.40
2023-02-16T02:26:10.903Z,6.40
2023-02-16T02:29:01.102Z,6.50
2023-02-16T02:32:01.816Z,6.50
2023-02-16T02:34:54.496Z,6.40
2023-02-16T02:37:44.090Z,6.50
2023-02-16T02:40:47.909Z,6.40
2023-02-16T02:44:01.750Z,6.40
2023-02-16T02:46:35.603Z,6.50
2023-02-16T02:49:04.045Z,6.50
2023-02-16T02:51:31.095Z,6.50
2023-02-16T02:54:56.178Z,6.50
2023-02-16T02:58:01.683Z,6.50
2023-02-16T03:00:44.690Z,6.50
2023-02-16T03:03:32.574Z,6.60
2023-02-16T03:06:15.408Z,6.60
2023-02-16T03:08:47.522Z,6.50
2023-02-16T03:11:41.167Z,6.50
2023-02-16T03:14:14.983Z,6.60
2023-02-16T03:17:13.539Z,6.60
2023-02-16T03:20:01.965Z,6.60
2023-02-16T03:22:49.010Z,6.60
2023-02-16T03:25:35.625Z,6.60
2023-02-16T03:28:27.586Z,6.70
2023-02-16T03:30:56.462Z,6.70
2023-02-16T03:33:25.298Z,6.80
2023-02-16T03:35:53.932Z,6.70
2023-02-16T03:38:21.801Z,6.80
2023-02-16T03:40:50.292Z,6.80
2023-02-16T03:43:17.074Z,6.80
2023-02-16T03:45:45.048Z,6.80
2023-02-16T03:48:12.980Z,6.80
2023-02-16T03:50:39.789Z,6.80
2023-02-16T03:53:06.750Z,6.80
2023-02-16T03:55:51.703Z,6.80
2023-02-16T03:58:23.546Z,6.90
2023-02-16T04:00:52.132Z,6.80
2023-02-16T04:03:19.122Z,6.80
2023-02-16T04:05:46.222Z,6.90
2023-02-16T04:08:13.281Z,6.90
2023-02-16T04:10:40.507Z,7.00
2023-02-16T04:13:07.788Z,7.00
2023-02-16T04:15:35.580Z,7.00
2023-02-16T04:18:03.016Z,7.00
2023-02-16T04:20:32.874Z,7.00
2023-02-16T04:23:01.031Z,7.10
2023-02-16T04:25:28.848Z,7.00
2023-02-16T04:27:56.204Z,7.00
2023-02-16T04:30:28.183Z,7.00
2023-02-16T04:32:56.103Z,7.00
2023-02-16T04:35:23.329Z,7.00
2023-02-16T04:37:50.191Z,7.00
2023-02-16T04:40:18.434Z,7.00
2023-02-16T04:42:46.069Z,7.00
2023-02-16T04:45:14.107Z,7.00
2023-02-16T04:47:41.937Z,7.10
2023-02-16T04:50:09.607Z,7.10
2023-02-16T04:52:37.495Z,7.00
2023-02-16T04:55:06.086Z,7.10
2023-02-16T04:57:33.206Z,7.10
2023-02-16T05:00:00.220Z,7.10
2023-02-16T05:02:27.079Z,7.10
2023-02-16T05:04:53.950Z,7.10
2023-02-16T05:07:20.842Z,7.10
2023-02-16T05:09:47.731Z,7.00
2023-02-16T05:12:33.383Z,7.00
2023-02-16T05:15:00.193Z,7.00
2023-02-16T05:17:27.869Z,7.10
2023-02-16T05:19:58.509Z,7.00
2023-02-16T05:22:28.553Z,7.00
2023-02-16T05:24:55.471Z,7.00
2023-02-16T05:27:26.253Z,7.10
2023-02-16T05:29:53.278Z,7.10
2023-02-16T05:32:20.739Z,7.00
2023-02-16T05:34:47.817Z,7.10
2023-02-16T05:37:17.461Z,7.10
2023-02-16T05:39:44.742Z,7.00
2023-02-16T05:42:11.568Z,7.10
2023-02-16T05:44:38.975Z,7.00
2023-02-16T05:47:05.883Z,7.00
2023-02-16T05:49:32.921Z,7.00
2023-02-16T05:51:59.861Z,7.00
2023-02-16T05:54:27.910Z,7.00
2023-02-16T05:56:55.023Z,7.00
2023-02-16T05:59:22.730Z,7.00
2023-02-16T06:01:52.072Z,7.10
2023-02-16T06:04:21.369Z,7.10
2023-02-16T06:06:48.778Z,7.10
2023-02-16T06:09:15.738Z,7.00
2023-02-16T06:11:43.426Z,7.00
2023-02-16T06:14:19.934Z,7.10
2023-02-16T06:16:49.987Z,7.10
2023-02-16T06:19:19.578Z,7.10
2023-02-16T06:21:46.840Z,7.10
2023-02-16T06:24:14.586Z,7.10
2023-02-16T06:26:41.896Z,7.10
2023-02-16T06:29:10.047Z,7.10
2023-02-16T06:31:37.356Z,7.20
2023-02-16T06:34:05.112Z,7.10
2023-02-16T06:36:32.960Z,7.20
2023-02-16T06:38:59.858Z,7.20
2023-02-16T06:41:35.545Z,7.20
2023-02-16T06:44:06.332Z,7.20
2023-02-16T06:46:33.655Z,7.20
2023-02-16T06:49:00.733Z,7.20
2023-02-16T06:51:27.596Z,7.30
2023-02-16T06:53:54.507Z,7.30
2023-02-16T06:56:22.214Z,7.30
2023-02-16T06:58:50.137Z,7.40
2023-02-16T07:01:23.326Z,7.30
2023-02-16T07:03:54.918Z,7.40
2023-02-16T07:06:25.590Z,7.40
2023-02-16T07:08:53.279Z,7.30
2023-02-16T07:11:21.268Z,7.40
2023-02-16T07:13:48.295Z,7.40
2023-02-16T07:16:15.623Z,7.30
2023-02-16T07:18:42.869Z,7.40
2023-02-16T07:21:09.842Z,7.40
2023-02-16T07:23:36.683Z,7.40
2023-02-16T07:26:03.981Z,7.50
2023-02-16T07:28:30.780Z,7.50
2023-02-16T07:30:57.711Z,7.50
2023-02-16T07:33:24.629Z,7.50
2023-02-16T07:35:51.561Z,7.50
2023-02-16T07:38:18.423Z,7.60
2023-02-16T07:40:45.330Z,7.50
2023-02-16T07:43:12.277Z,7.60
2023-02-16T07:45:39.302Z,7.70
2023-02-16T07:48:06.370Z,7.80
2023-02-16T07:50:33.409Z,7.70
2023-02-16T07:53:02.744Z,7.80
2023-02-16T07:55:30.649Z,7.80
2023-02-16T07:57:57.644Z,7.80
2023-02-16T08:00:24.665Z,7.90
2023-02-16T08:02:51.647Z,7.90
2023-02-16T08:05:18.960Z,7.90
2023-02-16T08:07:46.852Z,7.90
2023-02-16T08:10:15.972Z,8.00
2023-02-16T08:12:43.293Z,8.00
2023-02-16T08:15:11.419Z,8.00
2023-02-16T08:17:38.903Z,8.00
2023-02-16T08:20:08.152Z,8.00
2023-02-16T08:22:35.875Z,8.00
2023-02-16T08:25:02.756Z,8.00
2023-02-16T08:27:29.630Z,8.00
2023-02-16T08:29:56.411Z,8.00
2023-02-16T08:32:23.306Z,8.10
2023-02-16T08:34:50.121Z,8.10
2023-02-16T08:37:16.937Z,8.10
2023-02-16T08:39:43.768Z,8.20
2023-02-16T08:42:13.399Z,8.20
2023-02-16T08:44:41.046Z,8.20
2023-02-16T08:47:09.401Z,8.20
2023-02-16T08:49:36.499Z,8.20
2023-02-16T08:52:04.163Z,8.20
2023-02-16T08:54:33.266Z,8.20
2023-02-16T08:57:02.821Z,8.20
2023-02-16T08:59:30.943Z,8.20
2023-02-16T09:01:59.405Z,8.30
2023-02-16T09:04:29.061Z,8.30
2023-02-16T09:06:58.087Z,8.20
2023-02-16T09:09:26.368Z,8.20
2023-02-16T09:11:53.927Z,8.10
2023-02-16T09:14:21.477Z,8.10
2023-02-16T09:16:48.958Z,8.10
2023-02-16T09:19:20.390Z,8.00
2023-02-16T09:21:50.508Z,8.00
2023-02-16T09:24:17.491Z,8.00
2023-02-16T09:26:44.539Z,8.00
2023-02-16T09:29:12.948Z,8.10
2023-02-16T09:31:40.829Z,8.10
2023-02-16T09:34:21.154Z,8.10
2023-02-16T09:36:49.128Z,8.20
2023-02-16T09:39:17.321Z,8.20
2023-02-16T09:42:05.954Z,8.10
2023-02-16T09:45:05.321Z,8.10
2023-02-16T09:47:47.647Z,8.10
2023-02-16T09:50:38.628Z,8.10
2023-02-16T09:53:25.868Z,8.10
2023-02-16T09:56:45.365Z,8.10
2023-02-16T09:59:53.863Z,8.10
2023-02-16T10:02:44.424Z,8.20
2023-02-16T10:05:25.489Z,8.20
2023-02-16T10:08:12.045Z,8.30
2023-02-16T10:11:41.430Z,8.40
2023-02-16T10:14:48.612Z,8.40
2023-02-16T10:17:39.754Z,8.50
2023-02-16T10:20:35.709Z,8.60
2023-02-16T10:23:37.966Z,8.70
2023-02-16T10:26:19.809Z,8.70
2023-02-16T10:28:51.274Z,8.80
2023-02-16T10:31:41.758Z,8.70
2023-02-16T10:35:00.907Z,8.90
2023-02-16T10:38:07.464Z,9.00
2023-02-16T10:41:19.139Z,9.00
2023-02-16T10:44:01.288Z,9.00
2023-02-16T10:46:56.750Z,9.00
2023-02-16T10:49:25.826Z,9.00
2023-02-16T10:51:56.382Z,9.00
2023-02-16T10:54:29.130Z,9.00
2023-02-16T10:57:04.213Z,9.10
2023-02-16T10:59:44.494Z,9.10
2023-02-16T11:02:38.029Z,9.20
2023-02-16T11:05:31.097Z,9.20
2023-02-16T11:08:03.075Z,9.30
2023-02-16T11:10:48.944Z,9.30
2023-02-16T11:13:37.367Z,9.30
2023-02-16T11:16:19.356Z,9.50
2023-02-16T11:18:59.839Z,9.40
2023-02-16T11:21:47.954Z,9.50
2023-02-16T11:24:31.799Z,9.60
2023-02-16T11:27:20.738Z,9.50
2023-02-16T11:29:48.498Z,9.60
2023-02-16T11:32:19.452Z,9.60
2023-02-16T11:34:53.481Z,9.70
2023-02-16T11:37:33.842Z,9.70
2023-02-16T11:40:18.023Z,9.70
2023-02-16T11:42:49.587Z,9.70
2023-02-16T11:45:32.779Z,9.70
2023-02-16T11:48:24.713Z,9.90
2023-02-16T11:51:05.167Z,9.90
2023-02-16T11:53:36.234Z,10.00
2023-02-16T11:56:20.432Z,10.20
2023-02-16T11:59:13.005Z,10.30
2023-02-16T12:02:17.401Z,10.20
2023-02-16T12:05:16.957Z,10.20
2023-02-16T12:08:10.368Z,10.30
2023-02-16T12:10:58.245Z,10.40
2023-02-16T12:13:55.674Z,10.50
2023-02-16T12:16:43.607Z,10.60
2023-02-16T12:19:48.357Z,10.60
2023-02-16T12:22:33.149Z,10.80
2023-02-16T12:25:30.039Z,10.70
2023-02-16T12:28:18.918Z,10.70
2023-02-16T12:30:56.576Z,10.60
2023-02-16T12:34:05.021Z,10.60
2023-02-16T12:37:28.459Z,10.70
2023-02-16T12:40:24.212Z,10.80
2023-02-16T12:43:38.437Z,10.90
2023-02-16T12:46:40.821Z,10.90
2023-02-16T12:49:27.512Z,11.00
2023-02-16T12:52:06.935Z,11.10
2023-02-16T12:54:45.285Z,11.00
2023-02-16T12:57:20.669Z,10.90
2023-02-16T13:00:09.444Z,10.90
2023-02-16T13:02:49.408Z,11.00
2023-02-16T13:05:24.925Z,10.90
2023-02-16T13:08:06.253Z,10.90
2023-02-16T13:10:58.437Z,10.90
2023-02-16T13:13:33.401Z,11.00
2023-02-16T13:16:31.947Z,11.00
2023-02-16T13:18:59.154Z,11.10
2023-02-16T13:21:52.143Z,11.20
2023-02-16T13:24:49.251Z,11.20
2023-02-16T13:27:51.341Z,11.30
2023-02-16T13:31:13.162Z,11.50
2023-02-16T13:34:33.805Z,11.50
2023-02-16T13:37:18.389Z,11.40
2023-02-16T13:40:29.386Z,11.40
2023-02-16T13:43:28.681Z,11.40
2023-02-16T13:45:56.772Z,11.40
2023-02-16T13:48:58.460Z,11.30
2023-02-16T13:51:30.904Z,11.30
2023-02-16T13:54:03.742Z,11.40
2023-02-16T13:56:33.451Z,11.40
2023-02-16T13:59:20.205Z,11.50
2023-02-16T14:01:53.690Z,11.50
2023-02-16T14:04:23.429Z,11.50
2023-02-16T14:07:01.188Z,11.50
2023-02-16T14:09:36.869Z,11.60
2023-02-16T14:12:36.079Z,11.70
2023-02-16T14:15:21.382Z,11.60
2023-02-16T14:17:48.613Z,11.70
2023-02-16T14:20:15.734Z,11.60
2023-02-16T14:22:45.613Z,11.60
2023-02-16T14:25:38.472Z,11.60
2023-02-16T14:28:21.858Z,11.60
2023-02-16T14:31:14.910Z,11.60
2023-02-16T14:34:02.562Z,11.60
2023-02-16T14:36:30.221Z,11.60
2023-02-16T14:38:59.500Z,11.50
2023-02-16T14:41:27.574Z,11.60
2023-02-16T14:44:05.275Z,11.60
2023-02-16T14:46:51.383Z,11.50
2023-02-16T14:49:50.141Z,11.50
2023-02-16T14:52:45.772Z,11.60
2023-02-16T14:56:07.863Z,11.60
2023-02-16T14:59:03.384Z,11.60
2023-02-16T15:01:44.190Z,11.50
2023-02-16T15:04:12.076Z,11.50
2023-02-16T15:06:44.423Z,11.40
2023-02-16T15:09:20.106Z,11.50
2023-02-16T15:12:11.086Z,11.40
2023-02-16T15:14:52.704Z,11.40
2023-02-16T15:17:41.417Z,11.30
2023-02-16T15:20:24.817Z,11.20
2023-02-16T15:22:56.891Z,11.20
2023-02-16T15:25:29.832Z,11.10
2023-02-16T15:28:11.466Z,11.00
2023-02-16T15:30:52.612Z,11.00
2023-02-16T15:33:22.971Z,10.90
2023-02-16T15:36:14.229Z,10.90
2023-02-16T15:39:07.062Z,10.90
2023-02-16T15:41:45.389Z,10.80
2023-02-16T15:44:35.283Z,10.70
2023-02-16T15:47:09.309Z,10.70
2023-02-16T15:49:38.761Z,10.80
2023-02-16T15:52:33.439Z,10.70
2023-02-16T15:55:04.768Z,10.70
2023-02-16T15:57:37.981Z,10.60
2023-02-16T16:00:20.618Z,10.60
2023-02-16T16:02:52.857Z,10.50
2023-02-16T16:05:25.152Z,10.50
2023-02-16T16:07:53.510Z,10.50
2023-02-16T16:10:26.153Z,10.50
2023-02-16T16:12:59.270Z,10.50
2023-02-16T16:15:30.235Z,10.50
2023-02-16T16:17:59.759Z,10.50
2023-02-16T16:20:31.406Z,10.40
2023-02-16T16:23:05.507Z,10.40
2023-02-16T16:25:47.901Z,10.40
2023-02-16T16:28:35.797Z,10.40
2023-02-16T16:31:33.519Z,10.40
2023-02-16T16:34:07.072Z,10.30
2023-02-16T16:36:56.809Z,10.40
2023-02-16T16:39:41.372Z,10.40
2023-02-16T16:42:24.793Z,10.40
2023-02-16T16:45:01.851Z,10.40
2023-02-16T16:47:40.996Z,10.40
2023-02-16T16:50:10.804Z,10.30
2023-02-16T16:52:48.872Z,10.40
2023-02-16T16:55:29.450Z,10.40
2023-02-16T16:58:04.966Z,10.30
2023-02-16T17:00:39.696Z,10.30
2023-02-16T17:03:08.761Z,10.30
2023-02-16T17:05:38.204Z,10.30
2023-02-16T17:08:05.241Z,10.30
2023-02-16T17:10:32.511Z,10.30
2023-02-16T17:13:00.526Z,10.30
2023-02-16T17:15:42.020Z,10.30
2023-02-16T17:18:15.754Z,10.30
2023-02-16T17:21:03.145Z,10.40
2023-02-16T17:23:29.974Z,10.40
2023-02-16T17:25:56.736Z,10.30
2023-02-16T17:28:23.670Z,10.40
2023-02-16T17:30:50.525Z,10.30
2023-02-16T17:33:17.430Z,10.40
2023-02-16T17:35:44.936Z,10.30
2023-02-16T17:38:19.188Z,10.30
2023-02-16T17:40:51.795Z,10.30
2023-02-16T17:43:20.326Z,10.30
2023-02-16T17:45:48.784Z,10.30
2023-02-16T17:48:28.338Z,10.30
2023-02-16T17:50:55.749Z,10.30
2023-02-16T17:53:26.038Z,10.30
2023-02-16T17:55:57.174Z,10.30
2023-02-16T17:58:25.861Z,10.30
2023-02-16T18:00:53.009Z,10.30
2023-02-16T18:03:21.724Z,10.30
2023-02-16T18:05:49.265Z,10.30
2023-02-16T18:08:16.114Z,10.30
2023-02-16T18:11:01.892Z,10.40
2023-02-16T18:13:30.112Z,10.30
2023-02-16T18:15:59.202Z,10.40
2023-02-16T18:18:26.406Z,10.40
2023-02-16T18:20:53.596Z,10.40
2023-02-16T18:23:20.538Z,10.40
2023-02-16T18:25:47.530Z,10.40
2023-02-16T18:28:21.095Z,10.40
2023-02-16T18:30:49.161Z,10.40
2023-02-16T18:33:18.032Z,10.40
2023-02-16T18:35:44.826Z,10.40
2023-02-16T18:38:12.648Z,10.40
2023-02-16T18:40:42.793Z,10.40
2023-02-16T18:43:10.741Z,10.40
2023-02-16T18:45:40.281Z,10.40
2023-02-16T18:48:07.782Z,10.40
2023-02-16T18:50:35.081Z,10.40
2023-02-16T18:53:02.084Z,10.40
2023-02-16T18:55:32.865Z,10.40
2023-02-16T18:58:01.624Z,10.40
2023-02-16T19:00:28.606Z,10.40
2023-02-16T19:02:56.875Z,10.40
2023-02-16T19:05:24.134Z,10.40
2023-02-16T19:07:51.993Z,10.50
2023-02-16T19:10:19.338Z,10.40
2023-02-16T19:12:46.392Z,10.50
2023-02-16T19:15:13.417Z,10.50
2023-02-16T19:17:40.273Z,10.40
2023-02-16T19:20:09.806Z,10.40
2023-02-16T19:22:37.195Z,10.50
2023-02-16T19:25:07.775Z,10.40
2023-02-16T19:27:35.488Z,10.40
2023-02-16T19:30:02.556Z,10.40
2023-02-16T19:32:29.685Z,10.50
2023-02-16T19:34:56.506Z,10.50
2023-02-16T19:37:23.452Z,10.50
2023-02-16T19:39:50.486Z,10.60
2023-02-16T19:42:17.561Z,10.60
2023-02-16T19:44:44.354Z,10.60
2023-02-16T19:47:11.258Z,10.60
2023-02-16T19:49:38.396Z,10.60
2023-02-16T19:52:05.564Z,10.60
2023-02-16T19:54:34.964Z,10.60
2023-02-16T19:57:03.536Z,10.60
2023-02-16T19:59:32.248Z,10.60
2023-02-16T20:01:59.483Z,10.60
2023-02-16T20:04:27.065Z,10.70
2023-02-16T20:06:54.624Z,10.70
2023-02-16T20:09:23.130Z,10.70
2023-02-16T20:11:51.354Z,10.70
2023-02-16T20:14:18.226Z,10.70
2023-02-16T20:16:45.542Z,10.80
2023-02-16T20:19:12.976Z,10.80
2023-02-16T20:21:43.946Z,10.80
2023-02-16T20:24:11.619Z,10.80
2023-02-16T20:26:43.577Z,10.80
2023-02-16T20:29:13.096Z,10.80
2023-02-16T20:31:51.295Z,10.80
2023-02-16T20:34:19.091Z,10.80
2023-02-16T20:36:46.080Z,10.80
2023-02-16T20:39:13.584Z,10.80
2023-02-16T20:41:41.314Z,10.80
2023-02-16T20:44:09.143Z,10.80
2023-02-16T20:46:38.561Z,10.80
2023-02-16T20:49:06.819Z,10.70
2023-02-16T20:51:35.002Z,10.80
2023-02-16T20:54:02.813Z,10.80
2023-02-16T20:56:30.509Z,10.90
2023-02-16T20:58:58.572Z,10.80
2023-02-16T21:01:33.419Z,10.80
2023-02-16T21:04:01.093Z,10.80
2023-02-16T21:06:28.834Z,10.80
2023-02-16T21:08:56.551Z,10.80
2023-02-16T21:11:24.054Z,10.80
2023-02-16T21:13:51.427Z,10.90
2023-02-16T21:16:18.434Z,10.80
2023-02-16T21:18:45.268Z,10.80
2023-02-16T21:21:15.418Z,10.90
2023-02-16T21:23:45.429Z,10.80
2023-02-16T21:26:12.557Z,10.80
2023-02-16T21:28:39.949Z,10.90
2023-02-16T21:31:19.372Z,10.80
2023-02-16T21:33:47.879Z,10.80
2023-02-16T21:36:20.265Z,10.80
2023-02-16T21:38:48.009Z,10.80
2023-02-16T21:41:25.788Z,10.80
2023-02-16T21:44:03.048Z,10.80
2023-02-16T21:46:40.311Z,10.80
2023-02-16T21:49:12.885Z,10.90
2023-02-16T21:51:42.363Z,10.80
2023-02-16T21:54:14.481Z,10.90
2023-02-16T21:56:43.871Z,11.00
2023-02-16T21:59:14.765Z,10.90
2023-02-16T22:01:48.047Z,10.90
2023-02-16T22:04:21.348Z,11.00
2023-02-16T22:06:50.521Z,11.00
2023-02-16T22:09:22.042Z,10.90
2023-02-16T22:11:50.316Z,10.80
2023-02-16T22:14:17.792Z,10.90
2023-02-16T22:16:46.962Z,10.80
2023-02-16T22:19:18.099Z,10.90
2023-02-16T22:21:47.967Z,10.90
2023-02-16T22:24:18.344Z,10.90
2023-02-16T22:26:47.907Z,10.90
2023-02-16T22:29:15.185Z,10.90
2023-02-16T22:31:49.740Z,10.90
2023-02-16T22:34:21.733Z,10.90
2023-02-16T22:36:49.180Z,10.90
2023-02-16T22:39:19.024Z,10.80
2023-02-16T22:41:45.990Z,10.80
2023-02-16T22:44:12.906Z,10.90
2023-02-16T22:46:39.703Z,10.80
2023-02-16T22:49:06.568Z,10.80
2023-02-16T22:51:33.318Z,10.80
2023-02-16T22:54:01.825Z,10.80
2023-02-16T22:56:30.284Z,10.90
2023-02-16T22:58:59.205Z,10.80
2023-02-16T23:01:29.902Z,10.80
2023-02-16T23:03:59.752Z,10.80
2023-02-16T23:06:32.579Z,10.80
2023-02-16T23:09:06.938Z,10.90
2023-02-16T23:11:35.130Z,10.80
2023-02-16T23:14:02.530Z,10.80
2023-02-16T23:16:29.566Z,10.80
2023-02-16T23:18:59.037Z,10.90
2023-02-16T23:21:32.674Z,10.90
2023-02-16T23:24:00.426Z,10.90
2023-02-16T23:26:30.086Z,11.00
2023-02-16T23:29:01.517Z,10.90
2023-02-16T23:31:33.607Z,10.90
2023-02-16T23:34:02.429Z,11.00
2023-02-16T23:36:30.445Z,11.00
2023-02-16T23:39:02.234Z,11.00
2023-02-16T23:41:29.097Z,10.90
2023-02-16T23:43:56.460Z,10.90
2023-02-16T23:46:23.643Z,10.90
2023-02-16T23:48:50.753Z,11.00
2023-02-16T23:51:17.652Z,11.00
2023-02-16T23:53:44.848Z,10.90
2023-02-16T23:56:22.322Z,11.00
2023-02-16T23:58:50.067Z,11.00
